sensor_id;sensor_type;location;lat;lon;timestamp;temperature;humidity
11005;DHT22;5555;59.622;16.556;2022-08-19T00:00:26;17.80;99.90
11005;DHT22;5555;59.622;16.556;2022-08-19T00:02:53;17.80;99.90
11005;DHT22;5555;59.622;16.556;2022-08-19T00:05:20;17.80;99.90
11005;DHT22;5555;59.622;16.556;2022-08-19T00:07:47;17.80;99.90
11005;DHT22;5555;59.622;16.556;2022-08-19T00:10:14;17.80;99.90
11005;DHT22;5555;59.622;16.556;2022-08-19T00:12:40;17.80;99.90
11005;DHT22;5555;59.622;16.556;2022-08-19T00:15:08;17.80;99.90
11005;DHT22;5555;59.622;16.556;2022-08-19T00:17:40;17.90;99.90
11005;DHT22;5555;59.622;16.556;2022-08-19T00:20:09;17.80;99.90
11005;DHT22;5555;59.622;16.556;2022-08-19T00:22:36;17.90;99.90
11005;DHT22;5555;59.622;16.556;2022-08-19T00:25:03;17.90;99.90
11005;DHT22;5555;59.622;16.556;2022-08-19T00:27:29;17.80;99.90
11005;DHT22;5555;59.622;16.556;2022-08-19T00:29:55;17.80;99.90
11005;DHT22;5555;59.622;16.556;2022-08-19T00:32:20;17.90;99.90
11005;DHT22;5555;59.622;16.556;2022-08-19T00:34:46;17.90;99.90
11005;DHT22;5555;59.622;16.556;2022-08-19T00:37:12;17.80;99.90
11005;DHT22;5555;59.622;16.556;2022-08-19T00:39:38;17.80;99.90
11005;DHT22;5555;59.622;16.556;2022-08-19T00:42:04;17.90;99.90
11005;DHT22;5555;59.622;16.556;2022-08-19T00:44:31;17.90;99.90
11005;DHT22;5555;59.622;16.556;2022-08-19T00:46:58;17.80;99.90
11005;DHT22;5555;59.622;16.556;2022-08-19T00:49:26;17.80;99.90
11005;DHT22;5555;59.622;16.556;2022-08-19T00:51:58;17.80;99.90
11005;DHT22;5555;59.622;16.556;2022-08-19T00:54:25;17.90;99.90
11005;DHT22;5555;59.622;16.556;2022-08-19T00:56:52;17.80;99.90
11005;DHT22;5555;59.622;16.556;2022-08-19T00:59:19;17.90;99.90
11005;DHT22;5555;59.622;16.556;2022-08-19T01:01:46;17.90;99.90
11005;DHT22;5555;59.622;16.556;2022-08-19T01:04:12;17.90;99.90
11005;DHT22;5555;59.622;16.556;2022-08-19T01:06:39;17.90;99.90
11005;DHT22;5555;59.622;16.556;2022-08-19T01:09:07;17.90;99.90
11005;DHT22;5555;59.622;16.556;2022-08-19T01:11:36;17.90;99.90
11005;DHT22;5555;59.622;16.556;2022-08-19T01:14:03;17.90;99.90
11005;DHT22;5555;59.622;16.556;2022-08-19T01:16:30;17.90;99.90
11005;DHT22;5555;59.622;16.556;2022-08-19T01:18:56;17.90;99.90
11005;DHT22;5555;59.622;16.556;2022-08-19T01:21:52;17.80;99.90
11005;DHT22;5555;59.622;16.556;2022-08-19T01:24:21;17.90;99.90
11005;DHT22;5555;59.622;16.556;2022-08-19T01:26:47;17.90;99.90
11005;DHT22;5555;59.622;16.556;2022-08-19T01:29:13;17.90;99.90
11005;DHT22;5555;59.622;16.556;2022-08-19T01:31:39;17.90;99.90
11005;DHT22;5555;59.622;16.556;2022-08-19T01:34:05;17.80;99.90
11005;DHT22;5555;59.622;16.556;2022-08-19T01:36:41;17.90;99.90
11005;DHT22;5555;59.622;16.556;2022-08-19T01:39:10;17.90;99.90
11005;DHT22;5555;59.622;16.556;2022-08-19T01:41:37;17.90;99.90
11005;DHT22;5555;59.622;16.556;2022-08-19T01:44:05;17.90;99.90
11005;DHT22;5555;59.622;16.556;2022-08-19T01:46:32;17.90;99.90
11005;DHT22;5555;59.622;16.556;2022-08-19T01:48:57;18.00;99.90
11005;DHT22;5555;59.622;16.556;2022-08-19T01:51:23;17.90;99.90
11005;DHT22;5555;59.622;16.556;2022-08-19T01:53:51;17.90;99.90
11005;DHT22;5555;59.622;16.556;2022-08-19T01:56:17;18.00;99.90
11005;DHT22;5555;59.622;16.556;2022-08-19T01:58:51;18.00;99.90
11005;DHT22;5555;59.622;16.556;2022-08-19T02:01:19;17.90;99.90
11005;DHT22;5555;59.622;16.556;2022-08-19T02:03:45;17.90;99.90
11005;DHT22;5555;59.622;16.556;2022-08-19T02:06:11;17.90;99.90
11005;DHT22;5555;59.622;16.556;2022-08-19T02:08:38;17.90;99.90
11005;DHT22;5555;59.622;16.556;2022-08-19T02:11:04;17.90;99.90
11005;DHT22;5555;59.622;16.556;2022-08-19T02:13:31;17.90;99.90
11005;DHT22;5555;59.622;16.556;2022-08-19T02:15:56;17.90;99.90
11005;DHT22;5555;59.622;16.556;2022-08-19T02:18:23;17.90;99.90
11005;DHT22;5555;59.622;16.556;2022-08-19T02:20:49;17.90;99.90
11005;DHT22;5555;59.622;16.556;2022-08-19T02:23:16;17.90;99.90
11005;DHT22;5555;59.622;16.556;2022-08-19T02:25:44;17.90;99.90
11005;DHT22;5555;59.622;16.556;2022-08-19T02:28:10;17.90;99.90
11005;DHT22;5555;59.622;16.556;2022-08-19T02:30:38;17.90;99.90
11005;DHT22;5555;59.622;16.556;2022-08-19T02:33:04;17.90;99.90
11005;DHT22;5555;59.622;16.556;2022-08-19T02:35:30;18.00;99.90
11005;DHT22;5555;59.622;16.556;2022-08-19T02:37:56;18.00;99.90
11005;DHT22;5555;59.622;16.556;2022-08-19T02:40:40;17.90;99.90
11005;DHT22;5555;59.622;16.556;2022-08-19T02:43:14;18.00;99.90
11005;DHT22;5555;59.622;16.556;2022-08-19T02:45:40;18.00;99.90
11005;DHT22;5555;59.622;16.556;2022-08-19T02:48:06;18.00;99.90
11005;DHT22;5555;59.622;16.556;2022-08-19T02:50:33;18.00;99.90
11005;DHT22;5555;59.622;16.556;2022-08-19T02:52:58;18.00;99.90
11005;DHT22;5555;59.622;16.556;2022-08-19T02:55:24;18.00;99.90
11005;DHT22;5555;59.622;16.556;2022-08-19T02:57:50;18.00;99.90
11005;DHT22;5555;59.622;16.556;2022-08-19T03:00:16;18.00;99.90
11005;DHT22;5555;59.622;16.556;2022-08-19T03:02:41;18.00;99.90
11005;DHT22;5555;59.622;16.556;2022-08-19T03:05:08;18.00;99.90
11005;DHT22;5555;59.622;16.556;2022-08-19T03:07:42;18.00;99.90
11005;DHT22;5555;59.622;16.556;2022-08-19T03:10:08;18.10;99.90
11005;DHT22;5555;59.622;16.556;2022-08-19T03:12:37;18.10;99.90
11005;DHT22;5555;59.622;16.556;2022-08-19T03:15:08;18.10;99.90
11005;DHT22;5555;59.622;16.556;2022-08-19T03:17:35;18.10;99.90
11005;DHT22;5555;59.622;16.556;2022-08-19T03:20:00;18.20;99.90
11005;DHT22;5555;59.622;16.556;2022-08-19T03:22:26;18.10;99.90
11005;DHT22;5555;59.622;16.556;2022-08-19T03:24:52;18.10;99.90
11005;DHT22;5555;59.622;16.556;2022-08-19T03:27:19;18.20;99.90
11005;DHT22;5555;59.622;16.556;2022-08-19T03:29:44;18.20;99.90
11005;DHT22;5555;59.622;16.556;2022-08-19T03:32:11;18.20;99.90
11005;DHT22;5555;59.622;16.556;2022-08-19T03:34:37;18.20;99.90
11005;DHT22;5555;59.622;16.556;2022-08-19T03:37:07;18.20;99.90
11005;DHT22;5555;59.622;16.556;2022-08-19T03:39:33;18.20;99.90
11005;DHT22;5555;59.622;16.556;2022-08-19T03:42:00;18.30;99.90
11005;DHT22;5555;59.622;16.556;2022-08-19T03:44:29;18.30;99.90
11005;DHT22;5555;59.622;16.556;2022-08-19T03:46:57;18.30;99.90
11005;DHT22;5555;59.622;16.556;2022-08-19T03:49:26;18.30;99.90
11005;DHT22;5555;59.622;16.556;2022-08-19T03:51:53;18.30;99.90
11005;DHT22;5555;59.622;16.556;2022-08-19T03:54:21;18.40;99.90
11005;DHT22;5555;59.622;16.556;2022-08-19T03:56:52;18.40;99.90
11005;DHT22;5555;59.622;16.556;2022-08-19T03:59:31;18.40;99.90
11005;DHT22;5555;59.622;16.556;2022-08-19T04:01:59;18.40;99.90
11005;DHT22;5555;59.622;16.556;2022-08-19T04:04:25;18.40;99.90
11005;DHT22;5555;59.622;16.556;2022-08-19T04:06:51;18.40;99.90
11005;DHT22;5555;59.622;16.556;2022-08-19T04:09:18;18.50;99.90
11005;DHT22;5555;59.622;16.556;2022-08-19T04:11:48;18.50;99.90
11005;DHT22;5555;59.622;16.556;2022-08-19T04:14:19;18.50;99.90
11005;DHT22;5555;59.622;16.556;2022-08-19T04:16:47;18.60;99.90
11005;DHT22;5555;59.622;16.556;2022-08-19T04:19:14;18.50;99.90
11005;DHT22;5555;59.622;16.556;2022-08-19T04:21:40;18.60;99.90
11005;DHT22;5555;59.622;16.556;2022-08-19T04:24:06;18.60;99.90
11005;DHT22;5555;59.622;16.556;2022-08-19T04:26:34;18.60;99.90
11005;DHT22;5555;59.622;16.556;2022-08-19T04:29:03;18.70;99.90
11005;DHT22;5555;59.622;16.556;2022-08-19T04:31:31;18.70;99.90
11005;DHT22;5555;59.622;16.556;2022-08-19T04:34:02;18.80;99.90
11005;DHT22;5555;59.622;16.556;2022-08-19T04:36:31;18.80;99.90
11005;DHT22;5555;59.622;16.556;2022-08-19T04:39:00;18.90;99.90
11005;DHT22;5555;59.622;16.556;2022-08-19T04:41:26;18.90;99.90
11005;DHT22;5555;59.622;16.556;2022-08-19T04:44:12;18.90;99.90
11005;DHT22;5555;59.622;16.556;2022-08-19T04:46:38;19.00;99.90
11005;DHT22;5555;59.622;16.556;2022-08-19T04:49:05;19.10;99.90
11005;DHT22;5555;59.622;16.556;2022-08-19T04:51:32;19.10;99.90
11005;DHT22;5555;59.622;16.556;2022-08-19T04:53:58;19.10;99.90
11005;DHT22;5555;59.622;16.556;2022-08-19T04:56:26;19.20;99.90
11005;DHT22;5555;59.622;16.556;2022-08-19T04:58:53;19.20;99.90
11005;DHT22;5555;59.622;16.556;2022-08-19T05:01:25;19.30;99.90
11005;DHT22;5555;59.622;16.556;2022-08-19T05:03:51;19.30;99.90
11005;DHT22;5555;59.622;16.556;2022-08-19T05:06:18;19.40;99.90
11005;DHT22;5555;59.622;16.556;2022-08-19T05:08:45;19.40;99.90
11005;DHT22;5555;59.622;16.556;2022-08-19T05:11:20;19.50;99.90
11005;DHT22;5555;59.622;16.556;2022-08-19T05:13:47;19.50;99.90
11005;DHT22;5555;59.622;16.556;2022-08-19T05:16:15;19.50;99.90
11005;DHT22;5555;59.622;16.556;2022-08-19T05:18:41;19.60;99.90
11005;DHT22;5555;59.622;16.556;2022-08-19T05:21:26;19.60;99.90
11005;DHT22;5555;59.622;16.556;2022-08-19T05:24:11;19.60;99.90
11005;DHT22;5555;59.622;16.556;2022-08-19T05:26:39;19.70;99.90
11005;DHT22;5555;59.622;16.556;2022-08-19T05:29:06;19.80;99.90
11005;DHT22;5555;59.622;16.556;2022-08-19T05:31:35;20.00;99.90
11005;DHT22;5555;59.622;16.556;2022-08-19T05:34:02;19.90;99.90
11005;DHT22;5555;59.622;16.556;2022-08-19T05:36:34;19.90;99.90
11005;DHT22;5555;59.622;16.556;2022-08-19T05:39:00;20.00;99.90
11005;DHT22;5555;59.622;16.556;2022-08-19T05:41:26;20.00;99.90
11005;DHT22;5555;59.622;16.556;2022-08-19T05:44:02;20.10;99.90
11005;DHT22;5555;59.622;16.556;2022-08-19T05:46:28;20.30;99.90
11005;DHT22;5555;59.622;16.556;2022-08-19T05:48:54;20.30;99.90
11005;DHT22;5555;59.622;16.556;2022-08-19T05:51:22;20.50;99.90
11005;DHT22;5555;59.622;16.556;2022-08-19T05:53:48;20.60;99.90
11005;DHT22;5555;59.622;16.556;2022-08-19T05:56:15;20.70;99.90
11005;DHT22;5555;59.622;16.556;2022-08-19T05:58:42;20.90;99.90
11005;DHT22;5555;59.622;16.556;2022-08-19T06:01:12;20.90;99.90
11005;DHT22;5555;59.622;16.556;2022-08-19T06:03:39;20.90;99.90
11005;DHT22;5555;59.622;16.556;2022-08-19T06:06:06;20.90;99.90
11005;DHT22;5555;59.622;16.556;2022-08-19T06:08:33;21.00;99.90
11005;DHT22;5555;59.622;16.556;2022-08-19T06:11:12;21.10;99.90
11005;DHT22;5555;59.622;16.556;2022-08-19T06:13:38;21.40;99.90
11005;DHT22;5555;59.622;16.556;2022-08-19T06:16:04;21.60;99.90
11005;DHT22;5555;59.622;16.556;2022-08-19T06:18:30;21.70;99.90
11005;DHT22;5555;59.622;16.556;2022-08-19T06:20:55;21.80;99.90
11005;DHT22;5555;59.622;16.556;2022-08-19T06:23:21;21.80;99.90
11005;DHT22;5555;59.622;16.556;2022-08-19T06:25:47;21.80;99.90
11005;DHT22;5555;59.622;16.556;2022-08-19T06:28:13;21.70;99.90
11005;DHT22;5555;59.622;16.556;2022-08-19T06:30:38;21.70;99.90
11005;DHT22;5555;59.622;16.556;2022-08-19T06:33:04;21.60;99.90
11005;DHT22;5555;59.622;16.556;2022-08-19T06:35:29;21.60;99.90
11005;DHT22;5555;59.622;16.556;2022-08-19T06:37:55;21.60;99.90
11005;DHT22;5555;59.622;16.556;2022-08-19T06:40:21;21.60;99.90
11005;DHT22;5555;59.622;16.556;2022-08-19T06:42:47;21.60;99.90
11005;DHT22;5555;59.622;16.556;2022-08-19T06:45:13;21.60;99.90
11005;DHT22;5555;59.622;16.556;2022-08-19T06:47:38;21.80;99.90
11005;DHT22;5555;59.622;16.556;2022-08-19T06:50:04;22.00;99.90
11005;DHT22;5555;59.622;16.556;2022-08-19T06:52:31;22.00;99.90
11005;DHT22;5555;59.622;16.556;2022-08-19T06:54:58;22.00;99.90
11005;DHT22;5555;59.622;16.556;2022-08-19T06:57:25;22.00;99.90
11005;DHT22;5555;59.622;16.556;2022-08-19T06:59:51;22.10;99.90
11005;DHT22;5555;59.622;16.556;2022-08-19T07:02:17;22.10;99.90
11005;DHT22;5555;59.622;16.556;2022-08-19T07:04:43;22.10;99.90
11005;DHT22;5555;59.622;16.556;2022-08-19T07:07:11;22.10;99.90
11005;DHT22;5555;59.622;16.556;2022-08-19T07:09:40;22.10;99.90
11005;DHT22;5555;59.622;16.556;2022-08-19T07:12:08;22.20;99.90
11005;DHT22;5555;59.622;16.556;2022-08-19T07:14:35;22.30;99.90
11005;DHT22;5555;59.622;16.556;2022-08-19T07:17:05;22.40;99.90
11005;DHT22;5555;59.622;16.556;2022-08-19T07:19:32;22.60;99.90
11005;DHT22;5555;59.622;16.556;2022-08-19T07:21:58;22.70;99.90
11005;DHT22;5555;59.622;16.556;2022-08-19T07:24:27;22.60;99.90
11005;DHT22;5555;59.622;16.556;2022-08-19T07:26:56;22.50;99.90
11005;DHT22;5555;59.622;16.556;2022-08-19T07:29:23;22.70;99.90
11005;DHT22;5555;59.622;16.556;2022-08-19T07:31:50;22.70;99.90
11005;DHT22;5555;59.622;16.556;2022-08-19T07:34:16;22.90;99.90
11005;DHT22;5555;59.622;16.556;2022-08-19T07:36:43;22.90;99.90
11005;DHT22;5555;59.622;16.556;2022-08-19T07:39:15;22.70;99.90
11005;DHT22;5555;59.622;16.556;2022-08-19T07:41:42;22.70;99.90
11005;DHT22;5555;59.622;16.556;2022-08-19T07:44:08;23.00;99.90
11005;DHT22;5555;59.622;16.556;2022-08-19T07:46:36;23.00;99.90
11005;DHT22;5555;59.622;16.556;2022-08-19T07:49:04;22.90;99.90
11005;DHT22;5555;59.622;16.556;2022-08-19T07:51:30;22.80;99.90
11005;DHT22;5555;59.622;16.556;2022-08-19T07:53:56;22.80;99.90
11005;DHT22;5555;59.622;16.556;2022-08-19T07:56:22;22.80;99.90
11005;DHT22;5555;59.622;16.556;2022-08-19T07:58:50;23.10;99.90
11005;DHT22;5555;59.622;16.556;2022-08-19T08:01:21;23.30;99.90
11005;DHT22;5555;59.622;16.556;2022-08-19T08:03:49;23.30;99.90
11005;DHT22;5555;59.622;16.556;2022-08-19T08:06:33;23.60;99.90
11005;DHT22;5555;59.622;16.556;2022-08-19T08:09:28;23.70;99.90
11005;DHT22;5555;59.622;16.556;2022-08-19T08:12:02;23.90;99.90
11005;DHT22;5555;59.622;16.556;2022-08-19T08:14:42;23.70;99.90
11005;DHT22;5555;59.622;16.556;2022-08-19T08:17:10;23.80;99.90
11005;DHT22;5555;59.622;16.556;2022-08-19T08:19:36;23.90;99.90
11005;DHT22;5555;59.622;16.556;2022-08-19T08:22:03;24.00;99.90
11005;DHT22;5555;59.622;16.556;2022-08-19T08:24:30;24.10;99.90
11005;DHT22;5555;59.622;16.556;2022-08-19T08:26:58;24.00;99.90
11005;DHT22;5555;59.622;16.556;2022-08-19T08:29:25;24.20;99.90
11005;DHT22;5555;59.622;16.556;2022-08-19T08:31:52;24.20;99.90
11005;DHT22;5555;59.622;16.556;2022-08-19T08:34:19;24.20;99.90
11005;DHT22;5555;59.622;16.556;2022-08-19T08:36:46;24.40;99.90
11005;DHT22;5555;59.622;16.556;2022-08-19T08:39:14;24.60;99.90
11005;DHT22;5555;59.622;16.556;2022-08-19T08:42:08;24.40;99.90
11005;DHT22;5555;59.622;16.556;2022-08-19T08:47:17;24.60;99.90
11005;DHT22;5555;59.622;16.556;2022-08-19T08:50:03;24.80;99.90
11005;DHT22;5555;59.622;16.556;2022-08-19T08:52:36;24.90;99.90
11005;DHT22;5555;59.622;16.556;2022-08-19T08:55:15;25.00;99.90
11005;DHT22;5555;59.622;16.556;2022-08-19T09:00:35;25.40;99.90
11005;DHT22;5555;59.622;16.556;2022-08-19T09:03:03;25.40;99.90
11005;DHT22;5555;59.622;16.556;2022-08-19T09:06:01;25.40;99.90
11005;DHT22;5555;59.622;16.556;2022-08-19T09:08:49;25.30;99.90
11005;DHT22;5555;59.622;16.556;2022-08-19T09:14:16;25.60;99.90
11005;DHT22;5555;59.622;16.556;2022-08-19T09:16:43;25.90;99.90
11005;DHT22;5555;59.622;16.556;2022-08-19T09:19:09;25.90;99.90
11005;DHT22;5555;59.622;16.556;2022-08-19T09:21:36;25.90;99.90
11005;DHT22;5555;59.622;16.556;2022-08-19T09:24:03;26.00;99.90
11005;DHT22;5555;59.622;16.556;2022-08-19T09:26:31;26.00;99.90
11005;DHT22;5555;59.622;16.556;2022-08-19T09:28:58;26.10;99.90
11005;DHT22;5555;59.622;16.556;2022-08-19T09:31:27;26.30;99.90
11005;DHT22;5555;59.622;16.556;2022-08-19T09:33:53;26.20;99.90
11005;DHT22;5555;59.622;16.556;2022-08-19T09:36:23;26.40;99.90
11005;DHT22;5555;59.622;16.556;2022-08-19T09:38:51;26.70;99.90
11005;DHT22;5555;59.622;16.556;2022-08-19T09:41:19;26.80;99.90
11005;DHT22;5555;59.622;16.556;2022-08-19T09:43:47;27.10;99.90
11005;DHT22;5555;59.622;16.556;2022-08-19T09:46:13;27.30;99.90
11005;DHT22;5555;59.622;16.556;2022-08-19T09:48:41;27.30;99.90
11005;DHT22;5555;59.622;16.556;2022-08-19T09:51:10;27.10;99.90
11005;DHT22;5555;59.622;16.556;2022-08-19T09:53:38;27.20;99.90
11005;DHT22;5555;59.622;16.556;2022-08-19T09:56:05;26.90;99.90
11005;DHT22;5555;59.622;16.556;2022-08-19T09:58:32;26.70;99.90
11005;DHT22;5555;59.622;16.556;2022-08-19T10:00:59;26.70;99.90
11005;DHT22;5555;59.622;16.556;2022-08-19T10:03:26;26.90;99.90
11005;DHT22;5555;59.622;16.556;2022-08-19T10:05:52;27.20;99.90
11005;DHT22;5555;59.622;16.556;2022-08-19T10:08:21;27.20;99.90
11005;DHT22;5555;59.622;16.556;2022-08-19T10:10:47;27.70;99.90
11005;DHT22;5555;59.622;16.556;2022-08-19T10:13:15;28.00;99.90
11005;DHT22;5555;59.622;16.556;2022-08-19T10:15:42;28.10;99.90
11005;DHT22;5555;59.622;16.556;2022-08-19T10:18:08;28.30;99.90
11005;DHT22;5555;59.622;16.556;2022-08-19T10:20:33;28.50;99.90
11005;DHT22;5555;59.622;16.556;2022-08-19T10:23:02;28.70;99.90
11005;DHT22;5555;59.622;16.556;2022-08-19T10:25:28;28.00;99.90
11005;DHT22;5555;59.622;16.556;2022-08-19T10:27:54;28.20;99.90
11005;DHT22;5555;59.622;16.556;2022-08-19T10:30:20;28.40;99.90
11005;DHT22;5555;59.622;16.556;2022-08-19T10:32:46;28.60;99.90
11005;DHT22;5555;59.622;16.556;2022-08-19T10:35:13;28.60;99.90
11005;DHT22;5555;59.622;16.556;2022-08-19T10:37:39;28.50;99.90
11005;DHT22;5555;59.622;16.556;2022-08-19T10:40:07;28.30;99.90
11005;DHT22;5555;59.622;16.556;2022-08-19T10:42:34;28.50;99.90
11005;DHT22;5555;59.622;16.556;2022-08-19T10:45:00;28.80;99.90
11005;DHT22;5555;59.622;16.556;2022-08-19T10:47:26;28.80;99.90
11005;DHT22;5555;59.622;16.556;2022-08-19T10:49:53;28.80;99.90
11005;DHT22;5555;59.622;16.556;2022-08-19T10:52:42;28.80;99.90
11005;DHT22;5555;59.622;16.556;2022-08-19T10:55:09;29.30;99.90
11005;DHT22;5555;59.622;16.556;2022-08-19T10:57:53;29.50;99.90
11005;DHT22;5555;59.622;16.556;2022-08-19T11:00:22;29.40;99.90
11005;DHT22;5555;59.622;16.556;2022-08-19T11:02:49;29.60;99.90
11005;DHT22;5555;59.622;16.556;2022-08-19T11:05:15;29.60;99.90
11005;DHT22;5555;59.622;16.556;2022-08-19T11:07:42;29.60;99.90
11005;DHT22;5555;59.622;16.556;2022-08-19T11:10:12;29.60;99.90
11005;DHT22;5555;59.622;16.556;2022-08-19T11:12:39;29.80;99.90
11005;DHT22;5555;59.622;16.556;2022-08-19T11:15:09;30.20;99.90
11005;DHT22;5555;59.622;16.556;2022-08-19T11:17:39;30.30;99.90
11005;DHT22;5555;59.622;16.556;2022-08-19T11:20:13;30.10;99.90
11005;DHT22;5555;59.622;16.556;2022-08-19T11:22:40;29.70;99.90
11005;DHT22;5555;59.622;16.556;2022-08-19T11:25:06;29.90;99.90
11005;DHT22;5555;59.622;16.556;2022-08-19T11:27:32;30.10;99.90
11005;DHT22;5555;59.622;16.556;2022-08-19T11:29:59;30.00;99.90
11005;DHT22;5555;59.622;16.556;2022-08-19T11:32:26;30.60;99.90
11005;DHT22;5555;59.622;16.556;2022-08-19T11:34:52;30.30;99.90
11005;DHT22;5555;59.622;16.556;2022-08-19T11:37:18;30.40;99.90
11005;DHT22;5555;59.622;16.556;2022-08-19T11:39:44;31.20;99.90
11005;DHT22;5555;59.622;16.556;2022-08-19T11:42:09;31.20;99.90
11005;DHT22;5555;59.622;16.556;2022-08-19T11:44:54;30.70;99.90
11005;DHT22;5555;59.622;16.556;2022-08-19T11:47:19;30.70;99.90
11005;DHT22;5555;59.622;16.556;2022-08-19T11:49:46;30.60;99.90
11005;DHT22;5555;59.622;16.556;2022-08-19T11:52:12;30.70;99.90
11005;DHT22;5555;59.622;16.556;2022-08-19T11:54:38;31.10;99.90
11005;DHT22;5555;59.622;16.556;2022-08-19T11:57:04;31.30;99.90
11005;DHT22;5555;59.622;16.556;2022-08-19T11:59:30;31.50;99.90
11005;DHT22;5555;59.622;16.556;2022-08-19T12:01:56;32.00;99.90
11005;DHT22;5555;59.622;16.556;2022-08-19T12:04:22;32.80;99.90
11005;DHT22;5555;59.622;16.556;2022-08-19T12:06:47;33.30;99.90
11005;DHT22;5555;59.622;16.556;2022-08-19T12:09:15;33.10;99.90
11005;DHT22;5555;59.622;16.556;2022-08-19T12:11:43;32.70;99.90
11005;DHT22;5555;59.622;16.556;2022-08-19T12:14:12;32.60;99.90
11005;DHT22;5555;59.622;16.556;2022-08-19T12:16:39;32.80;99.90
11005;DHT22;5555;59.622;16.556;2022-08-19T12:19:06;33.10;99.90
11005;DHT22;5555;59.622;16.556;2022-08-19T12:21:34;32.90;99.90
11005;DHT22;5555;59.622;16.556;2022-08-19T12:24:01;33.00;99.90
11005;DHT22;5555;59.622;16.556;2022-08-19T12:26:28;33.30;99.90
11005;DHT22;5555;59.622;16.556;2022-08-19T12:28:54;33.40;99.90
11005;DHT22;5555;59.622;16.556;2022-08-19T12:31:20;33.40;99.90
11005;DHT22;5555;59.622;16.556;2022-08-19T12:33:47;33.90;99.90
11005;DHT22;5555;59.622;16.556;2022-08-19T12:36:14;34.00;99.90
11005;DHT22;5555;59.622;16.556;2022-08-19T12:38:41;33.80;99.90
11005;DHT22;5555;59.622;16.556;2022-08-19T12:41:11;34.10;99.90
11005;DHT22;5555;59.622;16.556;2022-08-19T12:43:38;34.30;99.90
11005;DHT22;5555;59.622;16.556;2022-08-19T12:46:05;34.40;99.90
11005;DHT22;5555;59.622;16.556;2022-08-19T12:48:31;34.10;99.90
11005;DHT22;5555;59.622;16.556;2022-08-19T12:53:23;34.30;99.90
11005;DHT22;5555;59.622;16.556;2022-08-19T12:55:58;34.00;99.90
11005;DHT22;5555;59.622;16.556;2022-08-19T12:58:25;34.00;99.90
11005;DHT22;5555;59.622;16.556;2022-08-19T13:00:51;34.30;99.90
11005;DHT22;5555;59.622;16.556;2022-08-19T13:03:17;34.40;99.90
11005;DHT22;5555;59.622;16.556;2022-08-19T13:05:42;34.50;99.90
11005;DHT22;5555;59.622;16.556;2022-08-19T13:08:08;35.10;99.90
11005;DHT22;5555;59.622;16.556;2022-08-19T13:10:35;34.70;99.90
11005;DHT22;5555;59.622;16.556;2022-08-19T13:13:06;34.60;99.90
11005;DHT22;5555;59.622;16.556;2022-08-19T13:15:37;34.40;99.90
11005;DHT22;5555;59.622;16.556;2022-08-19T13:18:06;34.80;99.90
11005;DHT22;5555;59.622;16.556;2022-08-19T13:20:32;34.70;99.70
11005;DHT22;5555;59.622;16.556;2022-08-19T13:22:58;35.00;99.80
11005;DHT22;5555;59.622;16.556;2022-08-19T13:25:23;35.00;99.80
11005;DHT22;5555;59.622;16.556;2022-08-19T13:27:51;34.70;99.10
11005;DHT22;5555;59.622;16.556;2022-08-19T13:30:19;34.60;99.90
11005;DHT22;5555;59.622;16.556;2022-08-19T13:33:04;35.10;99.00
11005;DHT22;5555;59.622;16.556;2022-08-19T13:35:39;35.40;98.70
11005;DHT22;5555;59.622;16.556;2022-08-19T13:38:06;35.20;98.70
11005;DHT22;5555;59.622;16.556;2022-08-19T13:40:32;35.00;98.50
11005;DHT22;5555;59.622;16.556;2022-08-19T13:43:00;35.10;98.20
11005;DHT22;5555;59.622;16.556;2022-08-19T13:45:27;35.40;97.50
11005;DHT22;5555;59.622;16.556;2022-08-19T13:47:56;34.80;98.30
11005;DHT22;5555;59.622;16.556;2022-08-19T13:50:24;34.80;97.50
11005;DHT22;5555;59.622;16.556;2022-08-19T13:52:53;34.90;98.40
11005;DHT22;5555;59.622;16.556;2022-08-19T13:55:20;35.10;97.70
11005;DHT22;5555;59.622;16.556;2022-08-19T13:57:49;35.40;98.00
11005;DHT22;5555;59.622;16.556;2022-08-19T14:00:17;35.10;98.10
11005;DHT22;5555;59.622;16.556;2022-08-19T14:02:44;35.60;98.60
11005;DHT22;5555;59.622;16.556;2022-08-19T14:05:12;35.80;96.20
11005;DHT22;5555;59.622;16.556;2022-08-19T14:07:38;36.00;97.40
11005;DHT22;5555;59.622;16.556;2022-08-19T14:10:07;35.70;96.70
11005;DHT22;5555;59.622;16.556;2022-08-19T14:12:33;35.50;97.90
11005;DHT22;5555;59.622;16.556;2022-08-19T14:14:59;35.40;96.60
11005;DHT22;5555;59.622;16.556;2022-08-19T14:17:25;35.50;97.10
11005;DHT22;5555;59.622;16.556;2022-08-19T14:20:01;35.60;97.90
11005;DHT22;5555;59.622;16.556;2022-08-19T14:22:30;35.60;96.90
11005;DHT22;5555;59.622;16.556;2022-08-19T14:24:59;35.80;96.80
11005;DHT22;5555;59.622;16.556;2022-08-19T14:27:25;36.20;97.10
11005;DHT22;5555;59.622;16.556;2022-08-19T14:29:54;36.30;97.90
11005;DHT22;5555;59.622;16.556;2022-08-19T14:32:20;36.10;98.60
11005;DHT22;5555;59.622;16.556;2022-08-19T14:34:46;36.00;99.90
11005;DHT22;5555;59.622;16.556;2022-08-19T14:37:13;36.20;99.90
11005;DHT22;5555;59.622;16.556;2022-08-19T14:39:40;36.60;98.10
11005;DHT22;5555;59.622;16.556;2022-08-19T14:42:10;36.80;99.00
11005;DHT22;5555;59.622;16.556;2022-08-19T14:44:36;36.40;94.90
11005;DHT22;5555;59.622;16.556;2022-08-19T14:47:01;36.80;95.50
11005;DHT22;5555;59.622;16.556;2022-08-19T14:49:27;36.60;93.30
11005;DHT22;5555;59.622;16.556;2022-08-19T14:51:53;36.50;93.10
11005;DHT22;5555;59.622;16.556;2022-08-19T14:54:19;36.30;93.80
11005;DHT22;5555;59.622;16.556;2022-08-19T14:56:44;36.40;94.10
11005;DHT22;5555;59.622;16.556;2022-08-19T14:59:10;36.30;92.70
11005;DHT22;5555;59.622;16.556;2022-08-19T15:01:36;35.90;92.90
11005;DHT22;5555;59.622;16.556;2022-08-19T15:04:02;35.60;93.80
11005;DHT22;5555;59.622;16.556;2022-08-19T15:06:28;35.80;94.00
11005;DHT22;5555;59.622;16.556;2022-08-19T15:08:54;35.20;94.30
11005;DHT22;5555;59.622;16.556;2022-08-19T15:11:23;35.00;94.20
11005;DHT22;5555;59.622;16.556;2022-08-19T15:13:49;35.60;93.90
11005;DHT22;5555;59.622;16.556;2022-08-19T15:16:16;36.00;93.30
11005;DHT22;5555;59.622;16.556;2022-08-19T15:18:41;36.40;92.50
11005;DHT22;5555;59.622;16.556;2022-08-19T15:21:14;36.20;92.80
11005;DHT22;5555;59.622;16.556;2022-08-19T15:23:42;36.40;93.60
11005;DHT22;5555;59.622;16.556;2022-08-19T15:26:07;37.30;91.00
11005;DHT22;5555;59.622;16.556;2022-08-19T15:28:34;36.80;91.50
11005;DHT22;5555;59.622;16.556;2022-08-19T15:30:59;36.50;91.50
11005;DHT22;5555;59.622;16.556;2022-08-19T15:33:26;36.50;91.90
11005;DHT22;5555;59.622;16.556;2022-08-19T15:35:52;36.10;92.00
11005;DHT22;5555;59.622;16.556;2022-08-19T15:38:19;36.40;91.60
11005;DHT22;5555;59.622;16.556;2022-08-19T15:40:47;36.60;91.30
11005;DHT22;5555;59.622;16.556;2022-08-19T15:43:14;36.70;90.70
11005;DHT22;5555;59.622;16.556;2022-08-19T15:45:40;35.60;91.40